createdAt,value
2022-10-05T00:00:04.066Z,9.38
2022-10-05T00:05:22.785Z,9.46
2022-10-05T00:10:26.582Z,9.45
2022-10-05T00:15:31.491Z,9.35
2022-10-05T00:20:35.407Z,9.26
2022-10-05T00:25:40.651Z,9.14
2022-10-05T00:30:45.414Z,9.27
2022-10-05T00:35:49.931Z,9.32
2022-10-05T00:41:05.659Z,9.44
2022-10-05T00:46:16.784Z,9.47
2022-10-05T00:51:26.788Z,9.49
2022-10-05T00:56:43.907Z,9.47
2022-10-05T01:01:58.773Z,9.44
2022-10-05T01:07:11.407Z,9.37
2022-10-05T01:12:22.478Z,9.41
2022-10-05T01:17:34.815Z,9.17
2022-10-05T01:22:54.693Z,9.16
2022-10-05T01:28:12.730Z,9.15
2022-10-05T01:33:24.659Z,9.13
2022-10-05T01:38:38.880Z,9.07
2022-10-05T01:43:48.494Z,9.01
2022-10-05T01:49:08.390Z,8.98
2022-10-05T01:54:27.301Z,8.89
2022-10-05T01:59:46.028Z,8.67
2022-10-05T02:05:08.242Z,8.69
2022-10-05T02:10:20.119Z,8.82
2022-10-05T02:15:28.506Z,8.89
2022-10-05T02:20:35.801Z,8.84
2022-10-05T02:25:43.827Z,8.75
2022-10-05T02:30:53.901Z,8.64
2022-10-05T02:36:02.798Z,8.63
2022-10-05T02:41:16.156Z,8.65
2022-10-05T02:46:29.652Z,8.64
2022-10-05T02:51:41.102Z,8.64
2022-10-05T02:56:57.355Z,8.55
2022-10-05T03:02:33.950Z,8.43
2022-10-05T03:07:45.086Z,8.50
2022-10-05T03:12:55.385Z,8.49
2022-10-05T03:18:14.350Z,8.51
2022-10-05T03:23:30.902Z,8.36
2022-10-05T03:28:41.632Z,8.28
2022-10-05T03:33:51.767Z,8.36
2022-10-05T03:39:04.963Z,8.23
2022-10-05T03:44:32.087Z,8.17
2022-10-05T03:49:59.018Z,8.16
2022-10-05T03:55:07.974Z,8.32
2022-10-05T04:00:17.320Z,8.43
2022-10-05T04:05:31.821Z,8.58
2022-10-05T04:10:42.971Z,8.63
2022-10-05T04:15:55.517Z,8.78
2022-10-05T04:21:04.739Z,8.75
2022-10-05T04:26:13.224Z,8.88
2022-10-05T04:31:26.108Z,8.99
2022-10-05T04:36:36.935Z,9.04
2022-10-05T04:41:55.297Z,9.12
2022-10-05T04:47:15.004Z,9.17
2022-10-05T04:52:26.872Z,9.22
2022-10-05T04:57:39.343Z,9.42
2022-10-05T05:03:13.454Z,9.53
2022-10-05T05:08:35.102Z,9.57
2022-10-05T05:14:06.018Z,9.54
2022-10-05T05:19:40.471Z,9.52
2022-10-05T05:25:00.019Z,9.55
2022-10-05T05:30:08.439Z,9.60
2022-10-05T05:35:42.087Z,9.70
2022-10-05T05:40:55.722Z,9.69
2022-10-05T05:46:01.960Z,9.87
2022-10-05T05:51:11.908Z,10.18
2022-10-05T05:56:22.134Z,10.40
2022-10-05T06:01:33.905Z,10.74
2022-10-05T06:06:46.173Z,10.97
2022-10-05T06:11:55.496Z,11.06
2022-10-05T06:17:05.249Z,11.15
2022-10-05T06:22:18.165Z,11.33
2022-10-05T06:27:28.418Z,11.50
2022-10-05T06:32:37.023Z,11.55
2022-10-05T06:37:58.976Z,11.84
2022-10-05T06:43:18.744Z,12.11
2022-10-05T06:49:20.613Z,12.44
2022-10-05T06:54:58.516Z,12.51
2022-10-05T07:00:15.834Z,12.75
2022-10-05T07:05:49.171Z,13.29
2022-10-05T07:11:06.284Z,13.58
2022-10-05T07:16:21.010Z,13.80
2022-10-05T07:21:35.860Z,13.89
2022-10-05T07:26:45.522Z,14.10
2022-10-05T07:32:02.328Z,14.38
2022-10-05T07:37:28.302Z,14.87
2022-10-05T07:42:47.581Z,15.36
2022-10-05T07:47:58.140Z,15.75
2022-10-05T07:53:07.046Z,16.18
2022-10-05T07:58:20.860Z,16.42
2022-10-05T08:03:34.466Z,16.78
2022-10-05T08:08:47.092Z,17.09
2022-10-05T08:13:56.270Z,17.13
2022-10-05T08:19:06.797Z,17.78
2022-10-05T08:24:20.345Z,17.86
2022-10-05T08:29:32.776Z,18.11
2022-10-05T08:34:46.226Z,18.72
2022-10-05T08:39:56.245Z,19.00
2022-10-05T08:45:36.786Z,19.36
2022-10-05T08:51:12.058Z,19.84
2022-10-05T08:56:35.832Z,19.80
2022-10-05T09:01:58.886Z,19.78
2022-10-05T09:07:13.021Z,20.52
2022-10-05T09:12:44.453Z,20.57
2022-10-05T09:18:24.281Z,21.15
2022-10-05T09:23:42.979Z,21.24
2022-10-05T09:29:04.923Z,21.45
2022-10-05T09:34:38.267Z,21.57
2022-10-05T09:40:07.006Z,21.44
2022-10-05T09:45:50.132Z,22.11
2022-10-05T09:51:19.766Z,22.23
2022-10-05T09:56:55.392Z,22.08
2022-10-05T10:02:24.837Z,22.91
2022-10-05T10:08:06.486Z,22.95
2022-10-05T10:13:32.830Z,23.35
2022-10-05T10:19:00.869Z,23.85
2022-10-05T10:24:42.717Z,24.11
2022-10-05T10:29:55.234Z,24.35
2022-10-05T10:35:20.284Z,24.13
2022-10-05T10:40:38.128Z,24.45
2022-10-05T10:45:54.811Z,23.30
2022-10-05T10:51:26.462Z,22.07
2022-10-05T10:56:59.648Z,21.07
2022-10-05T11:02:37.321Z,21.79
2022-10-05T11:08:00.806Z,23.38
2022-10-05T11:13:28.394Z,24.09
2022-10-05T11:19:00.824Z,24.06
2022-10-05T11:24:41.195Z,23.86
2022-10-05T11:30:13.257Z,24.25
2022-10-05T11:35:49.171Z,23.77
2022-10-05T11:41:34.195Z,22.38
2022-10-05T11:46:46.237Z,21.20
2022-10-05T11:52:01.235Z,20.36
2022-10-05T11:57:10.008Z,20.08
2022-10-05T12:02:44.609Z,19.89
2022-10-05T12:08:02.476Z,19.78
2022-10-05T12:13:20.353Z,21.19
2022-10-05T12:18:42.417Z,22.53
2022-10-05T12:23:54.917Z,22.99
2022-10-05T12:29:04.942Z,23.14
2022-10-05T12:34:19.314Z,23.11
2022-10-05T12:39:33.663Z,22.96
2022-10-05T12:44:55.145Z,22.56
2022-10-05T12:50:11.060Z,21.52
2022-10-05T12:55:26.142Z,20.73
2022-10-05T13:00:33.898Z,20.26
2022-10-05T13:05:54.093Z,19.84
2022-10-05T13:11:12.691Z,20.16
2022-10-05T13:16:30.267Z,20.10
2022-10-05T13:21:50.175Z,19.86
2022-10-05T13:27:00.315Z,20.05
2022-10-05T13:32:12.798Z,20.13
2022-10-05T13:37:22.703Z,20.15
2022-10-05T13:42:36.155Z,20.00
2022-10-05T13:47:51.921Z,20.10
2022-10-05T13:53:01.187Z,19.75
2022-10-05T13:58:14.068Z,19.46
2022-10-05T14:03:30.929Z,19.26
2022-10-05T14:08:37.298Z,19.08
2022-10-05T14:13:48.946Z,18.85
2022-10-05T14:18:56.530Z,18.66
2022-10-05T14:24:39.575Z,18.51
2022-10-05T14:29:56.143Z,18.28
2022-10-05T14:35:15.221Z,18.10
2022-10-05T14:40:36.915Z,17.98
2022-10-05T14:45:54.690Z,17.83
2022-10-05T14:51:02.339Z,17.77
2022-10-05T14:56:30.017Z,17.71
2022-10-05T15:01:39.334Z,17.73
2022-10-05T15:06:52.167Z,17.72
2022-10-05T15:12:01.318Z,17.73
2022-10-05T15:17:17.467Z,17.76
2022-10-05T15:22:31.820Z,17.61
2022-10-05T15:27:51.038Z,17.54
2022-10-05T15:33:13.525Z,17.40
2022-10-05T15:38:22.103Z,17.21
2022-10-05T15:43:27.410Z,17.05
2022-10-05T15:48:42.445Z,16.89
2022-10-05T15:53:50.871Z,16.83
2022-10-05T15:58:56.817Z,16.56
2022-10-05T16:04:06.812Z,16.50
2022-10-05T16:09:22.612Z,16.35
2022-10-05T16:14:46.827Z,16.22
2022-10-05T16:20:04.357Z,16.04
2022-10-05T16:25:15.471Z,15.83
2022-10-05T16:30:21.524Z,15.80
2022-10-05T16:35:40.629Z,15.59
2022-10-05T16:40:51.087Z,15.48
2022-10-05T16:46:09.795Z,15.25
2022-10-05T16:51:30.145Z,15.02
2022-10-05T16:56:39.945Z,14.90
2022-10-05T17:01:58.504Z,14.68
2022-10-05T17:07:25.841Z,14.51
2022-10-05T17:12:46.863Z,14.48
2022-10-05T17:18:03.932Z,14.37
2022-10-05T17:23:24.135Z,14.23
2022-10-05T17:28:39.628Z,14.00
2022-10-05T17:34:12.013Z,13.79
2022-10-05T17:39:19.515Z,13.62
2022-10-05T17:44:27.078Z,13.43
2022-10-05T17:50:15.201Z,13.14
2022-10-05T18:01:07.920Z,12.84
2022-10-05T18:06:35.511Z,12.87
2022-10-05T18:11:42.749Z,12.70
2022-10-05T18:17:01.979Z,12.60
2022-10-05T18:22:27.763Z,12.58
2022-10-05T18:27:51.030Z,12.65
2022-10-05T18:33:29.995Z,12.59
2022-10-05T18:38:49.168Z,12.44
2022-10-05T18:44:03.598Z,12.32
2022-10-05T18:49:26.537Z,12.17
2022-10-05T18:54:45.710Z,12.13
2022-10-05T18:59:55.826Z,12.03
2022-10-05T19:05:42.655Z,11.92
2022-10-05T19:10:45.389Z,11.74
2022-10-05T19:15:59.044Z,11.67
2022-10-05T19:21:17.071Z,11.65
2022-10-05T19:26:37.512Z,11.69
2022-10-05T19:31:48.264Z,11.53
2022-10-05T19:37:01.155Z,11.63
2022-10-05T19:42:31.048Z,11.62
2022-10-05T19:47:47.954Z,11.38
2022-10-05T19:52:58.094Z,11.39
2022-10-05T19:58:01.915Z,11.35
2022-10-05T20:03:17.023Z,11.29
2022-10-05T20:08:27.065Z,11.16
2022-10-05T20:13:33.595Z,11.19
2022-10-05T20:18:56.451Z,11.04
2022-10-05T20:24:12.657Z,11.04
2022-10-05T20:29:16.025Z,10.94
2022-10-05T20:34:19.471Z,10.85
2022-10-05T20:39:24.633Z,10.81
2022-10-05T20:44:28.705Z,10.68
2022-10-05T20:49:35.286Z,10.56
2022-10-05T20:54:40.703Z,10.57
2022-10-05T20:59:44.190Z,10.56
2022-10-05T21:04:48.691Z,10.63
2022-10-05T21:09:55.784Z,10.71
2022-10-05T21:14:59.945Z,10.60
2022-10-05T21:20:03.554Z,10.56
2022-10-05T21:25:10.056Z,10.56
2022-10-05T21:30:14.337Z,10.48
2022-10-05T21:35:17.865Z,10.41
2022-10-05T21:40:24.010Z,10.37
2022-10-05T21:45:29.270Z,10.32
2022-10-05T21:50:33.594Z,10.23
2022-10-05T21:55:40.575Z,10.05
2022-10-05T22:00:44.157Z,10.16
2022-10-05T22:05:47.679Z,10.19
2022-10-05T22:10:52.666Z,10.20
2022-10-05T22:15:57.846Z,10.19
2022-10-05T22:21:01.233Z,9.99
2022-10-05T22:26:08.432Z,10.02
2022-10-05T22:31:12.988Z,10.05
2022-10-05T22:36:17.298Z,9.97
2022-10-05T22:41:22.138Z,9.91
2022-10-05T22:46:25.824Z,9.87
2022-10-05T22:51:29.798Z,9.76
2022-10-05T22:56:34.667Z,9.70
2022-10-05T23:01:38.172Z,9.67
2022-10-05T23:06:42.834Z,9.69
2022-10-05T23:11:52.035Z,9.61
2022-10-05T23:16:55.502Z,9.48
2022-10-05T23:21:59.221Z,9.39
2022-10-05T23:27:04.272Z,9.34
2022-10-05T23:32:08.103Z,9.38
2022-10-05T23:37:11.503Z,9.37
2022-10-05T23:42:16.660Z,9.36
2022-10-05T23:47:20.149Z,9.39
2022-10-05T23:52:23.627Z,9.38
2022-10-05T23:57:28.427Z,9.25
